Time;durP1;ratioP1;P1;durP2;ratioP2;P2;SDS_P1;SDS_P2;PMS_P1;PMS_P2;Temp;Humidity;BMP_temperature;BMP_pressure;BME280_temperature;BME280_humidity;BME280_pressure;Samples;Min_cycle;Max_cycle;Signal;HPM_P1;HPM_P2
2021/08/13 00:01:44;;;;;;;6.60;3.88;;;20.70;91.60;;;;;;6135674;23;20006;-87
2021/08/13 00:04:10;;;;;;;4.18;3.45;;;20.70;91.70;;;;;;6135195;23;20128;-87
2021/08/13 00:06:40;;;;;;;8.02;3.75;;;20.60;91.90;;;;;;6135717;23;20005;-89
2021/08/13 00:09:06;;;;;;;7.25;3.17;;;20.60;91.90;;;;;;6135841;23;20330;-88
2021/08/13 00:11:33;;;;;;;4.20;3.15;;;20.60;91.80;;;;;;6143111;23;20012;-87
2021/08/13 00:13:58;;;;;;;5.43;3.47;;;20.60;91.80;;;;;;6173395;23;20076;-88
2021/08/13 00:16:24;;;;;;;8.15;3.45;;;20.60;91.80;;;;;;6135151;23;20207;-88
2021/08/13 00:18:50;;;;;;;7.70;4.32;;;20.50;91.90;;;;;;6161565;23;20016;-89
2021/08/13 00:21:15;;;;;;;9.50;3.78;;;20.50;92.10;;;;;;6160778;23;20001;-89
2021/08/13 00:23:41;;;;;;;3.67;2.83;;;20.50;92.20;;;;;;6134288;23;20459;-89
2021/08/13 00:26:06;;;;;;;7.82;3.65;;;20.50;92.30;;;;;;6135364;23;20009;-89
2021/08/13 00:28:32;;;;;;;6.60;3.80;;;20.40;92.50;;;;;;6135061;23;20321;-87
2021/08/13 00:30:57;;;;;;;4.47;3.55;;;20.40;92.50;;;;;;6134898;23;20005;-89
2021/08/13 00:33:23;;;;;;;6.13;3.65;;;20.30;92.60;;;;;;6161216;23;20005;-88
2021/08/13 00:35:48;;;;;;;4.65;3.03;;;20.30;92.80;;;;;;6134806;23;20017;-88
2021/08/13 00:38:14;;;;;;;10.38;3.65;;;20.30;92.90;;;;;;6135504;23;20005;-88
2021/08/13 00:40:39;;;;;;;5.50;3.90;;;20.30;93.00;;;;;;6163591;23;20006;-88
2021/08/13 00:43:05;;;;;;;6.10;4.07;;;20.20;93.10;;;;;;6157571;23;20008;-88
2021/08/13 00:45:30;;;;;;;3.90;3.13;;;20.20;93.10;;;;;;6136719;23;20020;-89
2021/08/13 00:47:55;;;;;;;5.47;3.83;;;20.20;93.10;;;;;;6136210;23;20001;-89
2021/08/13 00:50:21;;;;;;;7.57;4.28;;;20.20;93.20;;;;;;6160337;23;20242;-87
2021/08/13 00:52:47;;;;;;;6.10;3.78;;;20.10;93.20;;;;;;6135162;23;20012;-87
2021/08/13 00:55:12;;;;;;;8.32;3.97;;;20.10;93.20;;;;;;6134746;23;20021;-88
2021/08/13 00:57:38;;;;;;;9.45;3.42;;;20.10;93.30;;;;;;6135260;23;20002;-88
2021/08/13 01:00:04;;;;;;;6.97;5.13;;;20.10;93.30;;;;;;6135590;23;20041;-88
2021/08/13 01:02:30;;;;;;;4.60;3.17;;;20.10;93.30;;;;;;6160025;23;20059;-88
2021/08/13 01:04:55;;;;;;;5.90;3.67;;;20.10;93.30;;;;;;6160470;23;20053;-88
2021/08/13 01:07:21;;;;;;;5.40;3.83;;;20.00;93.40;;;;;;6134892;23;20015;-88
2021/08/13 01:09:46;;;;;;;6.65;3.67;;;20.10;93.50;;;;;;6134861;23;20033;-88
2021/08/13 01:12:31;;;;;;;4.85;3.80;;;20.00;93.60;;;;;;6135697;23;20005;-88
2021/08/13 01:15:10;;;;;;;4.28;3.25;;;20.00;93.60;;;;;;6136186;23;20001;-89
2021/08/13 01:18:01;;;;;;;4.85;3.15;;;20.00;93.60;;;;;;6154089;23;20402;-90
2021/08/13 01:20:41;;;;;;;5.75;4.00;;;20.00;93.70;;;;;;6136189;23;20005;-88
2021/08/13 01:23:15;;;;;;;6.10;4.07;;;20.00;93.90;;;;;;6163311;23;20092;-88
2021/08/13 01:25:44;;;;;;;11.77;4.30;;;20.00;94.00;;;;;;6174305;23;20057;-88
2021/08/13 01:28:36;;;;;;;5.78;3.83;;;19.90;94.10;;;;;;6155823;23;20037;-89
2021/08/13 01:31:11;;;;;;;4.95;3.47;;;19.90;94.20;;;;;;6171051;23;20021;-87
2021/08/13 01:33:39;;;;;;;6.15;4.13;;;19.90;94.30;;;;;;6163679;23;20030;-88
2021/08/13 01:36:07;;;;;;;6.00;3.47;;;19.90;94.20;;;;;;6137324;23;20148;-89
2021/08/13 01:38:37;;;;;;;6.57;4.35;;;19.90;94.30;;;;;;6136858;23;20009;-88
2021/08/13 01:41:06;;;;;;;4.85;3.50;;;19.90;94.40;;;;;;6136105;23;20008;-88
2021/08/13 01:43:34;;;;;;;9.20;4.47;;;19.90;94.50;;;;;;6136332;23;20022;-88
2021/08/13 01:46:01;;;;;;;8.98;3.72;;;19.90;94.50;;;;;;6137552;23;20076;-91
2021/08/13 01:48:28;;;;;;;8.32;3.60;;;19.90;94.50;;;;;;6136491;23;20035;-88
2021/08/13 01:50:54;;;;;;;5.10;3.67;;;19.90;94.50;;;;;;6146848;23;19990;-88
2021/08/13 01:53:22;;;;;;;5.47;3.90;;;19.90;94.60;;;;;;6148743;23;20086;-88
2021/08/13 01:55:50;;;;;;;8.27;4.03;;;19.80;94.70;;;;;;6135906;23;20001;-89
2021/08/13 01:58:17;;;;;;;4.18;3.45;;;19.80;95.00;;;;;;6136161;23;20025;-88
2021/08/13 02:00:43;;;;;;;6.72;3.85;;;19.80;94.90;;;;;;6135737;23;20009;-90
2021/08/13 02:03:09;;;;;;;3.78;3.20;;;19.80;95.00;;;;;;6136015;23;20427;-89
2021/08/13 02:05:39;;;;;;;5.35;3.80;;;19.80;95.00;;;;;;6136254;23;20044;-90
2021/08/13 02:08:07;;;;;;;11.50;3.80;;;19.80;95.10;;;;;;6136096;23;20098;-89
2021/08/13 02:10:35;;;;;;;7.63;3.25;;;19.80;95.10;;;;;;6136322;23;20071;-89
2021/08/13 02:13:01;;;;;;;7.13;3.20;;;19.80;95.20;;;;;;6136236;23;20342;-89
2021/08/13 02:15:27;;;;;;;4.70;3.95;;;19.80;95.20;;;;;;6160341;23;20005;-89
2021/08/13 02:17:57;;;;;;;6.00;4.03;;;19.80;95.30;;;;;;6135688;23;20016;-89
2021/08/13 02:20:26;;;;;;;6.13;4.00;;;19.80;95.30;;;;;;6135351;23;20006;-88
2021/08/13 02:22:52;;;;;;;9.02;4.05;;;19.80;95.30;;;;;;6134845;23;20245;-89
2021/08/13 02:25:17;;;;;;;4.45;3.50;;;19.80;95.30;;;;;;6160742;23;20080;-89
2021/08/13 02:27:43;;;;;;;7.78;4.53;;;19.80;95.40;;;;;;6134955;23;20009;-89
2021/08/13 02:30:09;;;;;;;5.65;4.20;;;19.80;95.40;;;;;;6135535;23;20076;-89
2021/08/13 02:32:35;;;;;;;6.53;3.45;;;19.80;95.50;;;;;;6135497;23;20389;-89
2021/08/13 02:35:03;;;;;;;5.35;3.50;;;19.80;95.50;;;;;;6134747;23;20024;-89
2021/08/13 02:37:47;;;;;;;6.88;4.00;;;19.80;95.50;;;;;;6135227;23;20005;-89
2021/08/13 02:40:14;;;;;;;5.85;4.38;;;19.90;95.50;;;;;;6135729;23;20360;-89
2021/08/13 02:43:03;;;;;;;4.40;3.42;;;19.80;95.50;;;;;;6139992;23;20056;-90
2021/08/13 02:45:31;;;;;;;4.88;3.78;;;19.80;95.40;;;;;;6161678;23;20001;-90
2021/08/13 02:47:59;;;;;;;5.15;4.00;;;19.80;95.60;;;;;;6160360;23;20112;-90
2021/08/13 02:50:27;;;;;;;8.52;3.53;;;19.80;95.70;;;;;;6161510;23;20005;-90
2021/08/13 02:53:05;;;;;;;5.38;4.18;;;19.80;95.70;;;;;;6137529;23;20032;-89
2021/08/13 02:56:01;;;;;;;9.57;4.50;;;19.70;95.70;;;;;;6160369;23;20020;-87
2021/08/13 02:58:33;;;;;;;5.55;4.13;;;19.70;95.80;;;;;;6135044;23;20125;-89
2021/08/13 03:01:00;;;;;;;5.18;3.58;;;19.70;95.90;;;;;;6136318;23;20009;-88
2021/08/13 03:03:30;;;;;;;7.50;4.18;;;19.60;96.00;;;;;;6137873;23;20060;-90
2021/08/13 03:05:57;;;;;;;9.27;4.90;;;19.60;96.10;;;;;;6137370;23;20009;-88
2021/08/13 03:08:23;;;;;;;4.88;3.85;;;19.50;96.20;;;;;;6162716;23;20005;-89
2021/08/13 03:10:49;;;;;;;5.53;4.00;;;19.50;96.30;;;;;;6137897;23;20041;-90
2021/08/13 03:13:16;;;;;;;6.40;4.38;;;19.50;96.30;;;;;;6136956;23;20005;-88
2021/08/13 03:15:43;;;;;;;8.88;3.92;;;19.60;96.30;;;;;;6163058;23;20001;-88
2021/08/13 03:18:09;;;;;;;6.97;4.82;;;19.50;96.30;;;;;;6154409;23;20059;-88
2021/08/13 03:20:36;;;;;;;8.30;4.45;;;19.50;96.30;;;;;;6141929;23;20251;-89
2021/08/13 03:23:02;;;;;;;5.43;4.30;;;19.50;96.40;;;;;;6161715;23;20296;-89
2021/08/13 03:25:28;;;;;;;6.20;4.72;;;19.60;96.40;;;;;;6136178;23;20005;-89
2021/08/13 03:27:55;;;;;;;6.70;4.25;;;19.60;96.40;;;;;;6135699;23;20006;-89
2021/08/13 03:30:20;;;;;;;4.88;4.03;;;19.60;96.40;;;;;;6136426;23;20100;-89
2021/08/13 03:32:47;;;;;;;9.98;3.90;;;19.60;96.40;;;;;;6136864;23;20005;-88
2021/08/13 03:35:14;;;;;;;7.85;4.20;;;19.60;96.40;;;;;;6136633;23;20016;-89
2021/08/13 03:37:41;;;;;;;12.50;4.80;;;19.60;96.30;;;;;;6136562;23;20016;-88
2021/08/13 03:40:07;;;;;;;8.30;4.38;;;19.60;96.30;;;;;;6135707;23;20008;-89
2021/08/13 03:42:33;;;;;;;7.47;5.03;;;19.70;96.30;;;;;;6111645;23;20005;-89
2021/08/13 03:44:58;;;;;;;5.75;4.28;;;19.70;96.10;;;;;;6161513;23;20009;-89
2021/08/13 03:47:24;;;;;;;5.10;3.85;;;19.70;96.00;;;;;;6136300;23;20006;-89
2021/08/13 03:49:49;;;;;;;7.90;3.40;;;19.70;96.00;;;;;;6136390;23;20249;-89
2021/08/13 03:52:15;;;;;;;7.50;4.32;;;19.80;96.00;;;;;;6141512;23;20575;-89
2021/08/13 03:54:40;;;;;;;6.75;4.45;;;19.80;96.00;;;;;;6147906;23;20005;-89
2021/08/13 03:57:06;;;;;;;6.20;4.57;;;19.80;96.00;;;;;;6136506;23;20631;-89
2021/08/13 03:59:31;;;;;;;6.55;4.30;;;19.80;95.90;;;;;;6161190;23;20032;-89
2021/08/13 04:01:57;;;;;;;9.48;4.97;;;19.80;96.00;;;;;;6135127;23;20358;-89
2021/08/13 04:04:22;;;;;;;5.00;4.13;;;19.80;96.10;;;;;;6161745;23;20002;-89
2021/08/13 04:06:48;;;;;;;6.15;4.30;;;19.80;96.10;;;;;;6135883;23;20026;-89
2021/08/13 04:09:13;;;;;;;5.60;3.95;;;19.80;96.10;;;;;;6136253;23;20005;-88
2021/08/13 04:11:39;;;;;;;5.35;4.75;;;19.80;96.10;;;;;;6135656;23;20006;-90
2021/08/13 04:14:05;;;;;;;6.13;3.83;;;19.70;96.00;;;;;;6135910;23;20071;-89
2021/08/13 04:16:30;;;;;;;6.72;4.60;;;19.70;96.00;;;;;;6135992;23;20100;-89
2021/08/13 04:18:56;;;;;;;6.90;4.10;;;19.70;96.00;;;;;;6136262;23;20575;-89
2021/08/13 04:21:22;;;;;;;5.78;4.03;;;19.70;96.00;;;;;;6133452;23;20006;-89
2021/08/13 04:23:47;;;;;;;7.95;4.28;;;19.70;96.10;;;;;;6135205;23;20002;-89
2021/08/13 04:26:13;;;;;;;8.65;4.03;;;19.70;96.10;;;;;;6174621;23;20079;-89
2021/08/13 04:28:38;;;;;;;4.85;4.28;;;19.60;96.20;;;;;;6141474;23;20108;-89
2021/08/13 04:31:04;;;;;;;6.90;4.28;;;19.60;96.20;;;;;;6136679;23;20002;-89
2021/08/13 04:33:29;;;;;;;5.97;4.13;;;19.60;96.20;;;;;;6136822;23;20176;-87
2021/08/13 04:35:55;;;;;;;7.38;4.70;;;19.60;96.30;;;;;;6157917;23;20076;-89
2021/08/13 04:38:21;;;;;;;7.63;4.20;;;19.60;96.40;;;;;;6134811;23;20013;-88
2021/08/13 04:40:47;;;;;;;8.40;4.90;;;19.60;96.30;;;;;;6136395;23;20040;-89
2021/08/13 04:43:12;;;;;;;7.38;4.50;;;19.50;96.40;;;;;;6135038;23;20005;-89
2021/08/13 04:45:38;;;;;;;5.35;4.22;;;19.60;96.40;;;;;;6159517;23;20015;-89
2021/08/13 04:48:05;;;;;;;5.78;4.20;;;19.60;96.40;;;;;;6134467;23;20061;-89
2021/08/13 04:50:36;;;;;;;6.45;4.40;;;19.60;96.40;;;;;;6160247;23;20467;-89
2021/08/13 04:53:02;;;;;;;8.75;5.50;;;19.50;96.40;;;;;;6134100;23;20002;-89
2021/08/13 04:55:27;;;;;;;5.68;4.53;;;19.50;96.30;;;;;;6134759;23;20005;-89
2021/08/13 04:57:55;;;;;;;6.13;4.57;;;19.50;96.40;;;;;;6135728;23;20005;-88
2021/08/13 05:00:21;;;;;;;7.18;4.80;;;19.50;96.50;;;;;;6139422;23;20016;-88
2021/08/13 05:02:47;;;;;;;5.10;4.10;;;19.50;96.50;;;;;;6183334;23;20005;-89
2021/08/13 05:05:13;;;;;;;8.68;4.65;;;19.50;96.50;;;;;;6182264;23;20036;-89
2021/08/13 05:07:39;;;;;;;6.25;4.75;;;19.50;96.40;;;;;;6179956;23;20016;-89
2021/08/13 05:10:13;;;;;;;8.23;5.25;;;19.50;96.50;;;;;;6141881;23;20005;-89
2021/08/13 05:12:40;;;;;;;6.10;4.35;;;19.60;96.50;;;;;;6162465;23;20009;-89
2021/08/13 05:15:07;;;;;;;7.50;4.78;;;19.60;96.60;;;;;;6137246;23;20250;-89
2021/08/13 05:17:33;;;;;;;6.88;5.47;;;19.60;96.80;;;;;;6135983;23;20097;-90
2021/08/13 05:20:15;;;;;;;6.88;5.18;;;19.60;96.70;;;;;;5134739;27;20455;-90
2021/08/13 05:22:41;;;;;;;7.82;5.25;;;19.60;96.70;;;;;;5136433;27;20051;-88
2021/08/13 05:25:09;;;;;;;6.93;4.72;;;19.60;96.60;;;;;;5136130;28;20039;-89
2021/08/13 05:27:35;;;;;;;6.50;4.38;;;19.70;96.60;;;;;;5136289;27;20038;-89
2021/08/13 05:30:00;;;;;;;7.75;4.55;;;19.70;96.60;;;;;;5125580;28;20046;-89
2021/08/13 05:32:29;;;;;;;6.72;4.35;;;19.70;96.50;;;;;;5115015;28;20122;-89
2021/08/13 05:34:55;;;;;;;5.18;3.80;;;19.80;96.50;;;;;;5117812;28;20123;-89
2021/08/13 05:37:21;;;;;;;6.30;4.93;;;19.80;96.40;;;;;;5109913;28;20067;-90
2021/08/13 05:39:47;;;;;;;8.05;5.10;;;19.80;96.40;;;;;;5119941;28;20316;-88
2021/08/13 05:42:13;;;;;;;6.25;4.70;;;19.90;96.20;;;;;;5122609;28;20266;-88
2021/08/13 05:44:39;;;;;;;6.15;4.60;;;19.90;96.10;;;;;;5102963;28;20051;-88
2021/08/13 05:47:05;;;;;;;5.90;4.63;;;20.00;96.10;;;;;;5114764;28;20035;-89
2021/08/13 05:49:31;;;;;;;5.80;4.28;;;20.00;96.00;;;;;;5110644;28;20309;-87
2021/08/13 05:51:58;;;;;;;9.05;4.60;;;20.10;96.00;;;;;;5114088;28;20039;-90
2021/08/13 05:54:25;;;;;;;8.35;4.38;;;20.10;96.00;;;;;;5115522;28;20036;-89
2021/08/13 05:56:51;;;;;;;8.80;4.25;;;20.20;95.80;;;;;;5126290;28;20026;-89
2021/08/13 05:59:16;;;;;;;5.53;4.18;;;20.20;95.70;;;;;;5124866;28;20383;-89
2021/08/13 06:01:45;;;;;;;7.47;5.05;;;20.30;95.60;;;;;;5115934;28;20067;-89
2021/08/13 06:04:13;;;;;;;5.50;4.60;;;20.40;95.50;;;;;;5109151;28;20329;-89
2021/08/13 06:06:42;;;;;;;8.20;4.82;;;20.50;95.40;;;;;;5112907;28;20471;-88
2021/08/13 06:09:10;;;;;;;6.30;4.45;;;20.50;95.30;;;;;;5117827;28;20035;-88
2021/08/13 06:11:35;;;;;;;9.95;5.05;;;20.50;95.30;;;;;;5123853;28;20181;-89
2021/08/13 06:14:01;;;;;;;10.30;4.80;;;20.60;95.10;;;;;;5112538;28;20127;-88
2021/08/13 06:16:26;;;;;;;8.27;4.68;;;20.60;95.00;;;;;;5102554;28;20036;-89
2021/08/13 06:18:52;;;;;;;5.43;3.97;;;20.70;95.00;;;;;;5105255;28;20464;-88
2021/08/13 06:21:17;;;;;;;7.70;5.20;;;20.70;94.90;;;;;;5116431;28;20059;-88
2021/08/13 06:23:42;;;;;;;7.15;4.43;;;20.80;94.80;;;;;;5126146;27;20050;-88
2021/08/13 06:26:09;;;;;;;8.50;5.38;;;20.80;94.70;;;;;;5110425;28;20045;-88
2021/08/13 06:28:35;;;;;;;9.90;4.28;;;20.90;94.50;;;;;;5102604;28;20075;-89
2021/08/13 06:31:00;;;;;;;7.93;4.22;;;21.00;94.60;;;;;;5089324;28;20036;-89
2021/08/13 06:33:26;;;;;;;8.73;4.32;;;21.00;94.60;;;;;;5089054;28;20167;-88
2021/08/13 06:35:52;;;;;;;6.05;4.05;;;21.00;94.40;;;;;;5085038;28;20050;-89
2021/08/13 06:38:17;;;;;;;6.75;4.30;;;21.10;94.50;;;;;;5097670;28;20055;-88
2021/08/13 06:40:43;;;;;;;7.53;3.83;;;21.20;94.50;;;;;;5096826;28;20028;-88
2021/08/13 06:43:08;;;;;;;6.47;4.07;;;21.30;94.40;;;;;;5093933;28;20088;-89
2021/08/13 06:45:34;;;;;;;7.35;3.95;;;21.30;94.40;;;;;;5093225;28;20032;-90
2021/08/13 06:47:59;;;;;;;7.90;3.78;;;21.40;94.30;;;;;;5099282;28;20370;-89
2021/08/13 06:50:25;;;;;;;8.95;4.20;;;21.50;93.90;;;;;;5086726;28;20075;-89
2021/08/13 06:52:51;;;;;;;4.80;3.75;;;21.60;94.00;;;;;;5091823;28;20036;-90
2021/08/13 06:55:26;;;;;;;6.60;3.80;;;21.60;94.00;;;;;;5087512;28;20115;-90
2021/08/13 06:57:51;;;;;;;11.93;4.32;;;21.80;93.90;;;;;;5081312;28;20036;-89
2021/08/13 07:00:17;;;;;;;8.30;4.25;;;21.90;93.50;;;;;;5093827;28;20047;-89
2021/08/13 07:02:46;;;;;;;7.32;3.70;;;21.90;93.30;;;;;;5094200;28;20055;-90
2021/08/13 07:05:16;;;;;;;11.80;4.10;;;22.10;93.30;;;;;;5078219;28;20066;-89
2021/08/13 07:07:44;;;;;;;7.13;3.63;;;22.10;93.40;;;;;;5090155;28;20036;-88
2021/08/13 07:10:11;;;;;;;5.95;4.18;;;22.20;93.10;;;;;;5097545;28;20044;-90
2021/08/13 07:12:37;;;;;;;7.28;3.92;;;22.30;93.00;;;;;;5095948;28;20397;-90
2021/08/13 07:15:05;;;;;;;7.13;3.88;;;22.40;93.00;;;;;;5095989;28;20051;-89
2021/08/13 07:17:30;;;;;;;7.93;4.40;;;22.50;92.90;;;;;;5111796;28;20044;-90
2021/08/13 07:19:56;;;;;;;5.97;4.28;;;22.60;92.60;;;;;;5109436;28;20042;-91
2021/08/13 07:22:21;;;;;;;10.07;4.20;;;22.70;92.20;;;;;;5104659;28;20329;-90
2021/08/13 07:24:48;;;;;;;7.10;3.28;;;22.80;92.10;;;;;;5080492;28;20040;-90
2021/08/13 07:27:13;;;;;;;7.47;3.90;;;22.90;92.00;;;;;;5098180;28;20047;-90
2021/08/13 07:29:39;;;;;;;4.50;3.42;;;23.00;92.00;;;;;;5088592;28;20131;-88
2021/08/13 07:32:05;;;;;;;7.05;3.22;;;23.20;91.90;;;;;;5097773;28;20036;-90
2021/08/13 07:34:30;;;;;;;5.63;3.28;;;23.30;91.80;;;;;;5092891;28;20036;-90
2021/08/13 07:36:56;;;;;;;13.52;3.70;;;23.40;91.60;;;;;;5097149;28;20098;-89
2021/08/13 07:39:23;;;;;;;7.18;3.75;;;23.50;91.00;;;;;;5090030;28;20040;-89
2021/08/13 07:41:49;;;;;;;10.00;3.72;;;23.60;91.50;;;;;;5088600;28;20036;-89
2021/08/13 07:44:15;;;;;;;5.82;3.88;;;23.80;90.90;;;;;;5081856;28;20051;-86
2021/08/13 07:46:40;;;;;;;7.93;3.70;;;23.90;90.70;;;;;;5093915;28;20032;-88
2021/08/13 07:49:06;;;;;;;7.55;3.03;;;24.00;90.60;;;;;;5102988;28;20036;-89
2021/08/13 07:51:32;;;;;;;5.47;3.10;;;24.20;90.50;;;;;;5109463;28;20070;-90
2021/08/13 07:53:57;;;;;;;5.60;3.88;;;24.30;90.30;;;;;;5079285;28;20028;-89
2021/08/13 07:56:23;;;;;;;6.60;3.53;;;24.50;90.20;;;;;;5095700;28;20040;-88
2021/08/13 07:58:49;;;;;;;7.35;3.60;;;24.70;90.00;;;;;;5094831;28;20040;-88
2021/08/13 08:01:14;;;;;;;9.20;4.13;;;24.80;89.60;;;;;;5096794;28;20374;-90
2021/08/13 08:03:39;;;;;;;4.15;3.03;;;24.90;89.40;;;;;;5106124;28;20035;-88
2021/08/13 08:06:05;;;;;;;5.82;3.60;;;25.10;88.60;;;;;;5084858;28;20048;-88
2021/08/13 08:08:31;;;;;;;9.35;3.40;;;25.20;89.10;;;;;;5076153;28;20102;-89
2021/08/13 08:10:57;;;;;;;10.02;3.03;;;25.30;87.70;;;;;;5075894;28;20051;-88
2021/08/13 08:13:23;;;;;;;7.60;3.47;;;25.50;88.40;;;;;;5106438;28;20051;-89
2021/08/13 08:15:49;;;;;;;5.80;3.40;;;25.60;87.70;;;;;;5102104;28;20097;-90
2021/08/13 08:18:14;;;;;;;5.78;3.38;;;25.70;86.90;;;;;;5088422;28;20039;-89
2021/08/13 08:20:40;;;;;;;4.50;3.13;;;25.90;86.10;;;;;;5096954;28;20081;-88
2021/08/13 08:23:06;;;;;;;6.35;2.90;;;26.00;85.60;;;;;;5092363;28;20041;-88
2021/08/13 08:25:32;;;;;;;5.32;2.70;;;26.10;84.90;;;;;;5091413;28;20465;-88
2021/08/13 08:27:58;;;;;;;4.07;2.90;;;26.20;84.00;;;;;;5096399;28;20047;-87
2021/08/13 08:30:24;;;;;;;5.00;3.45;;;26.30;84.00;;;;;;5095158;28;20115;-88
2021/08/13 08:32:50;;;;;;;9.82;3.00;;;26.40;84.60;;;;;;5099571;28;20838;-90
2021/08/13 08:35:15;;;;;;;9.13;3.78;;;26.50;83.30;;;;;;5097458;28;20036;-89
2021/08/13 08:37:56;;;;;;;8.27;2.70;;;26.60;83.00;;;;;;5092912;28;20068;-90
2021/08/13 08:40:32;;;;;;;6.35;3.53;;;26.60;83.10;;;;;;5094924;28;20062;-88
2021/08/13 08:42:59;;;;;;;6.90;3.45;;;26.70;82.10;;;;;;5100499;28;20039;-89
2021/08/13 08:45:31;;;;;;;6.45;3.10;;;26.80;81.70;;;;;;5116091;28;20050;-88
2021/08/13 08:47:59;;;;;;;3.05;2.30;;;26.90;81.30;;;;;;5107515;28;20037;-90
2021/08/13 08:50:27;;;;;;;4.47;2.60;;;27.00;82.10;;;;;;5095034;28;20039;-89
2021/08/13 08:52:53;;;;;;;4.20;2.97;;;27.00;79.80;;;;;;5098509;28;20044;-89
2021/08/13 08:55:20;;;;;;;3.92;2.75;;;27.10;79.60;;;;;;5079901;28;20091;-88
2021/08/13 08:57:46;;;;;;;4.28;2.53;;;27.20;78.70;;;;;;5078877;28;20078;-90
2021/08/13 09:00:12;;;;;;;4.70;2.78;;;27.30;79.40;;;;;;5096892;28;20035;-88
2021/08/13 09:02:42;;;;;;;7.75;2.95;;;27.40;79.00;;;;;;5095755;28;20035;-89
2021/08/13 09:05:08;;;;;;;3.47;2.80;;;27.50;78.90;;;;;;5090529;28;20418;-88
2021/08/13 09:07:34;;;;;;;6.22;3.28;;;27.60;80.20;;;;;;5077346;28;20098;-89
2021/08/13 09:10:00;;;;;;;3.90;3.08;;;27.60;78.30;;;;;;5096735;28;20452;-89
2021/08/13 09:12:26;;;;;;;9.27;2.72;;;27.70;78.30;;;;;;5094744;28;20035;-89
2021/08/13 09:14:51;;;;;;;6.18;2.70;;;27.80;79.10;;;;;;5093937;28;20136;-91
2021/08/13 09:17:17;;;;;;;4.18;2.78;;;27.80;77.90;;;;;;5103022;28;20102;-89
2021/08/13 09:19:48;;;;;;;5.00;2.75;;;28.00;78.90;;;;;;5109497;28;20109;-89
2021/08/13 09:22:16;;;;;;;6.22;3.13;;;28.00;77.10;;;;;;5105530;28;20078;-89
2021/08/13 09:24:45;;;;;;;5.45;3.50;;;28.10;77.80;;;;;;5075475;28;20051;-88
2021/08/13 09:27:28;;;;;;;6.38;3.20;;;28.10;76.80;;;;;;5091062;28;20066;-89
2021/08/13 09:30:14;;;;;;;6.38;3.00;;;28.30;78.40;;;;;;5095484;28;20036;-89
2021/08/13 09:32:43;;;;;;;4.13;2.97;;;28.40;76.60;;;;;;5089283;28;20119;-90
2021/08/13 09:35:09;;;;;;;5.25;2.85;;;28.60;76.10;;;;;;5086549;28;20358;-89
2021/08/13 09:37:37;;;;;;;6.53;2.78;;;28.70;74.50;;;;;;5076924;28;20055;-88
2021/08/13 09:40:03;;;;;;;4.72;3.10;;;28.90;76.00;;;;;;5090668;28;20046;-88
2021/08/13 09:42:38;;;;;;;5.63;3.28;;;29.00;73.60;;;;;;5087686;28;20059;-89
2021/08/13 09:45:07;;;;;;;5.47;3.05;;;29.00;72.20;;;;;;5080596;28;20040;-90
2021/08/13 09:47:44;;;;;;;5.68;3.08;;;29.00;73.00;;;;;;5095255;28;20097;-88
2021/08/13 09:50:11;;;;;;;4.32;3.15;;;29.10;76.40;;;;;;5095940;28;20119;-90
2021/08/13 09:52:37;;;;;;;6.35;2.92;;;29.20;74.70;;;;;;5106054;28;20036;-90
2021/08/13 09:55:14;;;;;;;5.00;3.10;;;29.20;72.50;;;;;;5098169;28;20048;-90
2021/08/13 09:57:47;;;;;;;5.30;3.33;;;29.30;74.10;;;;;;5075679;28;20441;-89
2021/08/13 10:00:17;;;;;;;4.35;3.28;;;29.30;73.10;;;;;;5079818;28;20288;-89
2021/08/13 10:02:46;;;;;;;4.20;3.15;;;29.40;73.40;;;;;;5084459;28;20120;-89
2021/08/13 10:05:18;;;;;;;4.05;3.17;;;29.40;71.30;;;;;;5100123;28;20146;-90
2021/08/13 10:07:48;;;;;;;5.03;3.40;;;29.40;70.60;;;;;;5101470;28;20047;-92
2021/08/13 10:10:14;;;;;;;5.18;2.78;;;29.50;71.20;;;;;;5101038;28;20389;-89
2021/08/13 10:12:44;;;;;;;6.57;3.80;;;29.50;70.50;;;;;;5082649;28;20045;-88
2021/08/13 10:15:10;;;;;;;6.38;3.45;;;29.50;69.90;;;;;;5098222;28;20032;-89
2021/08/13 10:17:36;;;;;;;6.45;4.13;;;29.60;68.60;;;;;;5078407;28;20119;-89
2021/08/13 10:20:01;;;;;;;6.88;4.00;;;29.60;71.60;;;;;;5091382;28;20063;-89
2021/08/13 10:22:29;;;;;;;8.02;3.60;;;29.70;71.00;;;;;;5079355;28;20044;-87
2021/08/13 10:24:55;;;;;;;5.03;3.28;;;29.70;70.80;;;;;;5086251;28;20031;-87
2021/08/13 10:27:21;;;;;;;5.35;3.83;;;29.80;69.90;;;;;;5093145;28;20295;-88
2021/08/13 10:29:47;;;;;;;5.55;3.55;;;29.90;70.00;;;;;;5098767;28;20031;-87
2021/08/13 10:32:18;;;;;;;6.82;3.60;;;29.90;69.80;;;;;;5092474;28;20041;-88
2021/08/13 10:34:44;;;;;;;4.10;2.72;;;30.10;68.90;;;;;;5085449;28;20037;-90
2021/08/13 10:37:14;;;;;;;4.45;3.47;;;30.20;68.70;;;;;;5092996;28;20105;-88
2021/08/13 10:39:42;;;;;;;4.85;3.45;;;30.30;70.20;;;;;;5093102;28;20051;-89
2021/08/13 10:42:12;;;;;;;6.85;2.90;;;30.40;68.00;;;;;;5101511;28;20136;-87
2021/08/13 10:44:46;;;;;;;4.28;3.22;;;30.50;68.20;;;;;;5091146;28;20308;-87
2021/08/13 10:47:17;;;;;;;5.03;3.00;;;30.60;68.30;;;;;;5080481;28;20123;-84
2021/08/13 10:49:48;;;;;;;4.13;3.17;;;30.80;67.30;;;;;;5090098;28;20055;-86
2021/08/13 10:52:13;;;;;;;4.78;3.30;;;30.90;68.00;;;;;;5082477;28;20101;-85
2021/08/13 10:54:48;;;;;;;4.95;3.13;;;31.00;65.60;;;;;;5082941;28;20040;-86
2021/08/13 10:57:14;;;;;;;4.65;3.50;;;31.10;67.40;;;;;;5094534;28;20047;-86
2021/08/13 10:59:43;;;;;;;5.50;4.18;;;31.20;66.00;;;;;;5078111;28;20333;-90
2021/08/13 11:02:19;;;;;;;8.07;4.03;;;31.30;66.20;;;;;;5089557;28;20040;-91
2021/08/13 11:04:51;;;;;;;4.95;3.63;;;31.40;65.40;;;;;;5097725;28;20039;-91
2021/08/13 11:07:54;;;;;;;6.30;2.80;;;31.50;64.10;;;;;;5082629;28;20059;-91
2021/08/13 11:10:49;;;;;;;5.25;3.50;;;31.50;65.00;;;;;;5113613;28;20012;-92
2021/08/13 11:13:19;;;;;;;4.78;3.67;;;31.60;63.00;;;;;;5067714;28;20044;-92
2021/08/13 11:15:48;;;;;;;4.07;3.25;;;31.60;64.90;;;;;;5099700;28;20381;-92
2021/08/13 11:18:54;;;;;;;4.93;3.92;;;31.80;64.20;;;;;;5096935;28;20106;-92
2021/08/13 11:21:36;;;;;;;4.95;3.65;;;31.90;63.20;;;;;;5099571;28;20038;-92
2021/08/13 11:31:10;;;;;;;6.25;3.78;;;32.20;60.80;;;;;;5101309;28;20034;-91
2021/08/13 11:40:24;;;;;;;7.13;3.55;;;32.30;60.00;;;;;;5058052;28;20106;-92
2021/08/13 11:47:09;;;;;;;6.22;3.53;;;32.50;61.70;;;;;;5061890;28;20962;-92
2021/08/13 11:53:24;;;;;;;4.45;3.53;;;32.70;61.90;;;;;;5093996;28;20027;-92
2021/08/13 11:59:50;;;;;;;5.97;4.40;;;32.80;58.60;;;;;;5079025;28;20051;-92
2021/08/13 12:09:44;;;;;;;5.80;3.97;;;32.80;59.70;;;;;;4957317;29;20054;-90
2021/08/13 12:12:33;;;;;;;7.50;4.05;;;32.90;59.50;;;;;;4957471;29;20398;-90
2021/08/13 12:14:59;;;;;;;5.22;4.35;;;32.90;59.60;;;;;;4942455;29;20071;-92
2021/08/13 12:21:05;;;;;;;;;;;;;;;;;;;;;
2021/08/13 12:24:12;;;;;;;6.70;4.50;;;32.90;57.70;;;;;;5022272;28;20081;-92
2021/08/13 12:33:57;;;;;;;6.50;4.53;;;32.90;61.90;;;;;;5033991;28;20276;-92
2021/08/13 12:36:23;;;;;;;5.20;4.28;;;32.80;58.10;;;;;;5056995;28;20028;-91
2021/08/13 12:38:54;;;;;;;5.47;3.97;;;32.80;58.10;;;;;;5097777;28;20043;-90
2021/08/13 12:41:20;;;;;;;5.93;4.43;;;32.90;57.90;;;;;;5095723;28;20347;-89
2021/08/13 12:43:47;;;;;;;6.28;4.30;;;32.90;57.30;;;;;;5097191;28;20032;-91
2021/08/13 12:46:13;;;;;;;6.13;4.32;;;32.80;57.90;;;;;;5086047;28;20035;-91
2021/08/13 12:48:38;;;;;;;5.38;4.53;;;32.80;58.70;;;;;;5083894;28;20389;-91
2021/08/13 12:51:07;;;;;;;6.93;4.28;;;32.80;58.30;;;;;;5090632;28;20044;-93
2021/08/13 12:53:37;;;;;;;5.78;4.53;;;32.90;60.10;;;;;;5097828;28;20473;-91
2021/08/13 12:56:14;;;;;;;6.65;4.75;;;32.90;58.00;;;;;;5107512;28;20055;-91
2021/08/13 12:58:40;;;;;;;5.72;4.47;;;32.90;58.00;;;;;;5096980;28;20039;-91
2021/08/13 13:01:29;;;;;;;7.70;4.32;;;32.80;58.30;;;;;;5095678;28;20062;-90
2021/08/13 13:04:10;;;;;;;5.00;4.07;;;32.90;60.00;;;;;;5096140;28;20042;-92
2021/08/13 13:06:36;;;;;;;6.13;4.72;;;32.90;58.70;;;;;;5089708;28;20039;-91
2021/08/13 13:09:02;;;;;;;7.78;4.78;;;32.90;58.20;;;;;;5087221;28;20990;-89
2021/08/13 13:11:31;;;;;;;7.63;4.35;;;32.90;57.80;;;;;;5086327;28;20150;-91
2021/08/13 13:14:04;;;;;;;7.07;3.80;;;32.90;58.70;;;;;;5093306;28;20166;-92
2021/08/13 13:16:32;;;;;;;5.72;4.43;;;33.00;58.80;;;;;;5086554;28;20040;-94
2021/08/13 13:19:15;;;;;;;6.85;4.30;;;33.10;57.20;;;;;;5079082;28;20110;-91
2021/08/13 13:21:43;;;;;;;5.15;4.32;;;33.20;56.80;;;;;;5085156;28;20032;-92
2021/08/13 13:24:19;;;;;;;7.57;4.38;;;33.20;57.40;;;;;;5096930;28;20066;-88
2021/08/13 13:26:59;;;;;;;6.82;4.10;;;33.30;56.90;;;;;;5092486;28;20032;-89
2021/08/13 13:29:47;;;;;;;4.50;3.75;;;33.20;55.70;;;;;;5092349;28;20047;-88
2021/08/13 13:32:16;;;;;;;5.90;4.40;;;33.30;58.10;;;;;;5094350;28;20095;-88
2021/08/13 13:34:54;;;;;;;6.25;4.72;;;33.40;58.50;;;;;;5080372;28;20112;-89
2021/08/13 13:37:19;;;;;;;6.15;4.53;;;33.40;56.30;;;;;;5095068;28;20032;-89
2021/08/13 13:39:46;;;;;;;5.72;3.58;;;33.40;56.60;;;;;;5077082;28;20525;-88